Time;durP1;ratioP1;P1;durP2;ratioP2;P2;SDS_P1;SDS_P2;PMS_P1;PMS_P2;Temp;Humidity;BMP_temperature;BMP_pressure;BME280_temperature;BME280_humidity;BME280_pressure;Samples;Min_cycle;Max_cycle;Signal;HPM_P1;HPM_P2
2023/10/07 00:01:04;;;;;;;12.50;4.13;;;;;;;15.50;100.00;102284.88;5256261;28;20232;-71
2023/10/07 00:03:37;;;;;;;16.33;4.72;;;;;;;15.44;100.00;102295.50;5252114;28;20103;-72
2023/10/07 00:06:10;;;;;;;11.40;4.35;;;;;;;15.40;100.00;102292.25;5254959;28;20125;-70
2023/10/07 00:08:41;;;;;;;14.57;5.07;;;;;;;15.40;100.00;102299.53;5250115;28;20466;-70
2023/10/07 00:11:12;;;;;;;12.70;4.80;;;;;;;15.33;100.00;102299.34;5252467;28;20032;-71
2023/10/07 00:13:42;;;;;;;14.07;4.53;;;;;;;15.27;100.00;102302.72;5254373;28;20020;-71
2023/10/07 00:16:17;;;;;;;12.20;4.07;;;;;;;15.37;100.00;102298.03;5252031;28;20080;-70
2023/10/07 00:18:48;;;;;;;30.20;5.68;;;;;;;15.43;100.00;102308.19;5253759;28;20021;-70
2023/10/07 00:21:27;;;;;;;13.70;4.28;;;;;;;15.45;100.00;102302.59;5251024;28;20116;-71
2023/10/07 00:23:58;;;;;;;12.30;4.43;;;;;;;15.49;100.00;102306.69;5254755;28;20104;-71
2023/10/07 00:26:29;;;;;;;15.48;5.60;;;;;;;15.46;100.00;102307.00;5253855;28;20032;-71
2023/10/07 00:29:00;;;;;;;14.48;4.80;;;;;;;15.42;100.00;102298.38;5253251;28;20020;-72
2023/10/07 00:31:33;;;;;;;12.73;4.90;;;;;;;15.44;100.00;102290.94;5251805;28;20024;-73
2023/10/07 00:34:11;;;;;;;13.85;5.15;;;;;;;15.41;100.00;102290.41;5257846;28;20032;-71
2023/10/07 00:36:42;;;;;;;17.52;5.68;;;;;;;15.39;100.00;102290.59;5251515;28;20021;-71
2023/10/07 00:39:20;;;;;;;14.77;5.28;;;;;;;15.36;100.00;102284.63;5254819;28;20030;-71
2023/10/07 00:41:51;;;;;;;15.73;5.38;;;;;;;15.32;100.00;102280.59;5253702;28;20050;-71
2023/10/07 00:44:22;;;;;;;14.18;5.57;;;;;;;15.24;100.00;102268.72;5253310;28;20028;-71
2023/10/07 00:49:50;;;;;;;20.88;5.47;;;;;;;15.22;100.00;102264.50;5252234;28;20020;-71
2023/10/07 00:52:32;;;;;;;13.73;5.40;;;;;;;15.24;100.00;102281.38;5253722;28;20422;-71
2023/10/07 00:57:37;;;;;;;11.05;5.25;;;;;;;15.12;100.00;102277.28;5251449;28;20386;-71
2023/10/07 01:03:03;;;;;;;15.77;5.20;;;;;;;15.08;100.00;102279.47;5255233;28;20027;-71
2023/10/07 01:05:35;;;;;;;13.90;4.65;;;;;;;15.09;100.00;102277.59;5254103;28;20031;-70
2023/10/07 01:08:06;;;;;;;16.63;5.93;;;;;;;15.10;100.00;102274.72;5253282;28;20107;-71
2023/10/07 01:10:39;;;;;;;20.95;5.22;;;;;;;15.08;100.00;102267.81;5252690;28;20023;-71
2023/10/07 01:13:29;;;;;;;17.92;5.88;;;;;;;15.06;100.00;102264.41;5255659;28;20489;-71
2023/10/07 01:15:59;;;;;;;17.33;6.20;;;;;;;15.05;100.00;102258.16;5250073;28;20024;-72
2023/10/07 01:18:30;;;;;;;12.07;5.50;;;;;;;15.06;100.00;102264.41;5251718;28;20478;-71
2023/10/07 01:21:05;;;;;;;18.70;5.97;;;;;;;15.06;100.00;102264.41;5257064;28;20032;-71
2023/10/07 01:23:35;;;;;;;23.85;6.15;;;;;;;15.00;100.00;102266.72;5249765;28;20023;-71
2023/10/07 01:26:15;;;;;;;17.58;6.00;;;;;;;14.95;100.00;102262.81;5256044;28;20406;-71
2023/10/07 01:28:45;;;;;;;19.23;6.88;;;;;;;14.99;100.00;102265.06;5251474;28;20530;-71
2023/10/07 01:31:18;;;;;;;18.25;6.05;;;;;;;15.00;100.00;102261.34;5253590;28;20027;-71
2023/10/07 01:33:51;;;;;;;16.92;5.97;;;;;;;15.03;100.00;102260.19;5255497;28;20032;-71
2023/10/07 01:36:24;;;;;;;22.20;6.75;;;;;;;15.02;100.00;102263.91;5251577;28;20046;-71
2023/10/07 01:38:55;;;;;;;23.52;7.40;;;;;;;14.97;100.00;102255.41;5251478;28;20031;-71
2023/10/07 01:41:37;;;;;;;20.05;7.05;;;;;;;14.99;100.00;102258.81;5247399;28;20035;-71
2023/10/07 01:44:08;;;;;;;16.88;6.55;;;;;;;15.01;100.00;102262.22;5253349;28;20021;-71
2023/10/07 01:46:40;;;;;;;21.67;6.40;;;;;;;15.08;100.00;102254.28;5254984;28;20031;-71
2023/10/07 01:49:11;;;;;;;20.58;7.00;;;;;;;15.04;100.00;102253.75;5251568;28;20497;-71
2023/10/07 01:51:48;;;;;;;29.60;7.20;;;;;;;15.07;100.00;102249.91;5254831;28;20449;-72
2023/10/07 01:54:20;;;;;;;18.42;7.40;;;;;;;15.07;100.00;102252.59;5261272;28;20032;-71
2023/10/07 01:56:52;;;;;;;17.40;7.03;;;;;;;15.14;100.00;102250.94;5254877;28;20531;-71
2023/10/07 01:59:22;;;;;;;17.17;6.60;;;;;;;15.16;100.00;102233.56;5251784;28;20563;-71
2023/10/07 02:01:58;;;;;;;22.90;6.82;;;;;;;15.19;100.00;102238.63;5257741;28;20028;-71
2023/10/07 02:04:29;;;;;;;14.32;6.47;;;;;;;15.14;100.00;102240.97;5260322;28;20028;-71
2023/10/07 02:07:00;;;;;;;25.73;7.20;;;;;;;15.21;100.00;102251.97;5252594;28;20027;-71
2023/10/07 02:09:42;;;;;;;22.85;7.30;;;;;;;15.25;100.00;102250.63;5244972;28;20394;-71
2023/10/07 02:12:18;;;;;;;16.08;6.00;;;;;;;15.29;100.00;102244.75;5258370;28;20035;-71
2023/10/07 02:14:48;;;;;;;;;;;;;;;15.30;100.00;102256.41;5251236;28;20497;-72
2023/10/07 02:17:23;;;;;;;16.25;6.45;;;;;;;15.32;100.00;102257.09;5259326;28;19908;-71
2023/10/07 02:19:53;;;;;;;14.17;6.50;;;;;;;15.40;100.00;102257.13;5258237;28;20047;-71
2023/10/07 02:22:28;;;;;;;21.45;7.15;;;;;;;15.40;100.00;102257.13;5253017;28;20024;-72
2023/10/07 02:25:04;;;;;;;20.03;7.23;;;;;;;15.38;100.00;102258.31;5255154;28;20024;-71
2023/10/07 02:27:41;;;;;;;23.70;6.63;;;;;;;15.42;100.00;102243.44;5248947;28;20027;-71
2023/10/07 02:30:19;;;;;;;18.50;7.28;;;;;;;15.43;100.00;102245.97;5250942;28;20020;-72
2023/10/07 02:32:50;;;;;;;17.70;6.78;;;;;;;15.38;100.00;102247.50;5259720;28;20040;-72
2023/10/07 02:35:30;;;;;;;18.25;7.00;;;;;;;15.43;100.00;102245.13;5252110;28;20389;-72
2023/10/07 02:38:03;;;;;;;20.70;7.20;;;;;;;15.44;100.00;102266.59;5253988;28;20023;-71
2023/10/07 02:40:48;;;;;;;18.27;8.18;;;;;;;15.46;100.00;102244.78;5251853;28;20036;-71
2023/10/07 02:43:19;;;;;;;;;;;;;;;15.41;100.00;102255.25;5256609;28;20023;-72
2023/10/07 02:45:50;;;;;;;23.05;7.25;;;;;;;15.42;100.00;102255.13;5255003;28;19922;-71
2023/10/07 02:48:20;;;;;;;17.17;6.47;;;;;;;15.43;100.00;102250.53;5255334;28;20108;-71
2023/10/07 02:50:51;;;;;;;13.95;6.72;;;;;;;15.40;100.00;102253.56;5258655;28;20020;-72
2023/10/07 02:53:22;;;;;;;19.42;7.47;;;;;;;15.45;100.00;102241.25;5259612;28;20466;-71
2023/10/07 02:55:55;;;;;;;22.40;7.38;;;;;;;15.43;100.00;102245.97;5255066;28;20024;-71
2023/10/07 02:58:41;;;;;;;14.75;7.13;;;;;;;15.56;100.00;102248.19;5253440;28;20032;-71
2023/10/07 03:01:13;;;;;;;22.20;7.00;;;;;;;15.55;100.00;102243.81;5249786;28;20062;-71
2023/10/07 03:03:50;;;;;;;24.55;7.20;;;;;;;15.59;100.00;102244.34;5256419;28;20016;-71
2023/10/07 03:06:28;;;;;;;19.60;7.32;;;;;;;15.53;100.00;102241.28;5256072;28;20116;-72
2023/10/07 03:09:00;;;;;;;22.10;6.90;;;;;;;15.60;100.00;102251.44;5254502;28;20020;-71
2023/10/07 03:11:53;;;;;;;17.08;7.03;;;;;;;15.68;100.00;102260.44;5252520;28;20026;-71
2023/10/07 03:14:26;;;;;;;22.00;6.82;;;;;;;15.66;100.00;102262.50;5257989;28;20044;-71
2023/10/07 03:17:15;;;;;;;21.17;7.55;;;;;;;15.66;100.00;102248.97;5252155;28;20024;-71
2023/10/07 03:19:52;;;;;;;24.38;7.45;;;;;;;15.69;100.00;102248.63;5254104;28;20047;-71
2023/10/07 03:22:28;;;;;;;18.88;7.35;;;;;;;15.65;100.00;102255.38;5256958;28;20025;-72
2023/10/07 03:25:00;;;;;;;22.83;7.22;;;;;;;15.67;100.00;102258.75;5257020;28;20036;-72
2023/10/07 03:27:39;;;;;;;14.15;6.90;;;;;;;15.65;100.00;102244.53;5258272;28;20393;-71
2023/10/07 03:30:13;;;;;;;16.42;7.50;;;;;;;15.73;100.00;102241.88;5247685;28;20035;-71
2023/10/07 03:32:56;;;;;;;16.98;6.75;;;;;;;15.71;100.00;102230.38;5252995;28;20044;-71
2023/10/07 03:35:35;;;;;;;23.15;7.43;;;;;;;15.68;100.00;102241.50;5256965;28;20035;-71
2023/10/07 03:38:08;;;;;;;20.52;6.53;;;;;;;15.62;100.00;102231.34;5259451;28;20028;-71
2023/10/07 03:40:38;;;;;;;20.80;6.20;;;;;;;15.58;100.00;102243.50;5261144;28;20028;-71
2023/10/07 03:43:09;;;;;;;18.85;6.63;;;;;;;15.59;100.00;102242.47;5258695;28;20042;-72
2023/10/07 03:45:39;;;;;;;24.75;6.78;;;;;;;15.61;100.00;102242.28;5251079;28;20016;-71
2023/10/07 03:48:23;;;;;;;23.42;7.25;;;;;;;15.60;100.00;102243.31;5264171;28;20114;-72
2023/10/07 03:51:06;;;;;;;18.95;6.78;;;;;;;15.59;100.00;102228.09;5257363;28;20026;-72
2023/10/07 03:53:51;;;;;;;18.42;6.85;;;;;;;15.63;100.00;102224.94;5249302;28;20151;-71
2023/10/07 03:56:22;;;;;;;15.60;6.20;;;;;;;15.55;100.00;102223.00;5260217;28;20025;-72
2023/10/07 03:58:53;;;;;;;18.27;7.28;;;;;;;15.64;100.00;102234.75;5256015;28;20061;-72
2023/10/07 04:01:26;;;;;;;19.48;6.50;;;;;;;15.64;100.00;102232.03;5255225;28;20027;-71
2023/10/07 04:03:59;;;;;;;26.02;8.27;;;;;;;15.60;100.00;102232.50;5258004;28;20396;-72
2023/10/07 04:06:31;;;;;;;15.80;7.03;;;;;;;15.62;100.00;102236.75;5256301;28;20476;-71
2023/10/07 04:09:07;;;;;;;22.77;7.20;;;;;;;15.67;100.00;102236.28;5260946;28;20020;-72
2023/10/07 04:11:39;;;;;;;17.55;6.13;;;;;;;15.68;100.00;102235.25;5252039;28;20016;-72
2023/10/07 04:14:19;;;;;;;16.15;6.78;;;;;;;15.69;100.00;102232.38;5249913;28;20027;-71
2023/10/07 04:16:50;;;;;;;22.17;6.68;;;;;;;15.72;100.00;102239.34;5257647;28;20028;-71
2023/10/07 04:21:51;;;;;;;14.43;6.18;;;;;;;15.67;100.00;102239.00;5260954;28;20028;-71
2023/10/07 04:24:30;;;;;;;17.65;5.88;;;;;;;15.65;100.00;102220.19;5255310;28;20030;-72
2023/10/07 04:27:02;;;;;;;22.25;6.88;;;;;;;15.66;100.00;102221.03;5251293;28;20035;-72
2023/10/07 04:29:33;;;;;;;16.58;6.50;;;;;;;15.67;100.00;102215.47;5250273;28;20025;-72
2023/10/07 04:32:10;;;;;;;19.08;7.10;;;;;;;15.65;100.00;102214.78;5259361;28;20481;-72
2023/10/07 04:37:47;;;;;;;14.18;6.45;;;;;;;15.66;100.00;102216.50;5242369;28;20028;-71
2023/10/07 04:45:49;;;;;;;14.25;6.72;;;;;;;15.54;100.00;102205.09;5249852;28;20502;-71
2023/10/07 04:48:40;;;;;;;21.10;6.57;;;;;;;15.57;100.00;102212.06;5250968;28;20051;-71
2023/10/07 04:51:12;;;;;;;19.63;6.80;;;;;;;15.54;100.00;102205.09;5249723;28;20031;-71
2023/10/07 04:53:51;;;;;;;22.23;7.43;;;;;;;15.54;100.00;102205.09;5245628;28;20036;-71
2023/10/07 04:56:26;;;;;;;23.10;6.78;;;;;;;15.55;100.00;102205.94;5254036;28;20029;-71
2023/10/07 04:59:00;;;;;;;18.05;6.72;;;;;;;15.54;100.00;102201.56;5241284;28;20550;-71
2023/10/07 05:01:31;;;;;;;19.95;7.07;;;;;;;15.49;100.00;102203.91;5248959;28;20505;-70
2023/10/07 05:04:04;;;;;;;19.10;6.53;;;;;;;15.52;100.00;102214.41;5253030;28;20105;-71
2023/10/07 05:06:35;;;;;;;21.58;7.47;;;;;;;15.48;100.00;102210.34;5251575;28;20028;-71
2023/10/07 05:09:18;;;;;;;19.92;6.95;;;;;;;15.47;100.00;102212.19;5246627;28;20024;-71
2023/10/07 05:11:49;;;;;;;14.32;6.95;;;;;;;15.51;100.00;102196.47;5250240;28;20031;-71
2023/10/07 05:14:22;;;;;;;17.80;7.43;;;;;;;15.47;100.00;102209.50;5247809;28;20489;-71
2023/10/07 05:16:52;;;;;;;17.17;6.88;;;;;;;15.45;100.00;102221.47;5251082;28;20114;-71
2023/10/07 05:19:23;;;;;;;18.88;6.55;;;;;;;15.40;100.00;102230.06;5252370;28;20245;-71
2023/10/07 05:22:05;;;;;;;18.90;6.35;;;;;;;15.46;100.00;102242.09;5254262;28;20039;-71
2023/10/07 05:24:35;;;;;;;16.92;7.13;;;;;;;15.42;100.00;102233.47;5249681;28;20024;-71
2023/10/07 05:27:06;;;;;;;21.15;7.28;;;;;;;15.44;100.00;102236.00;5253233;28;20034;-71
2023/10/07 05:29:38;;;;;;;19.45;7.50;;;;;;;15.40;100.00;102237.34;5246931;28;20030;-70
2023/10/07 05:32:12;;;;;;;16.73;6.97;;;;;;;15.39;100.00;102238.34;5254700;28;20024;-71
2023/10/07 05:34:46;;;;;;;17.58;6.90;;;;;;;15.35;100.00;102247.81;5251247;28;20047;-70
2023/10/07 05:37:16;;;;;;;20.33;7.25;;;;;;;15.37;100.00;102253.91;5248616;28;20019;-71
2023/10/07 05:39:46;;;;;;;20.45;6.68;;;;;;;15.36;100.00;102257.59;5253823;28;20028;-70
2023/10/07 05:42:20;;;;;;;19.88;7.25;;;;;;;15.39;100.00;102266.25;5247717;28;20131;-70
2023/10/07 05:44:50;;;;;;;17.17;7.97;;;;;;;15.34;100.00;102263.19;5251570;28;20020;-70
2023/10/07 05:47:21;;;;;;;17.92;6.78;;;;;;;15.34;100.00;102257.78;5251961;28;20024;-71
2023/10/07 05:49:55;;;;;;;18.33;7.38;;;;;;;15.36;100.00;102272.00;5252629;28;20043;-71
2023/10/07 05:52:26;;;;;;;16.60;6.55;;;;;;;15.32;100.00;102270.63;5249784;28;20124;-71
2023/10/07 05:54:56;;;;;;;21.35;8.43;;;;;;;15.35;100.00;102270.28;5250503;28;20103;-71
2023/10/07 05:57:27;;;;;;;21.60;7.57;;;;;;;15.36;100.00;102261.19;5247687;28;20444;-70
2023/10/07 05:59:58;;;;;;;17.02;7.10;;;;;;;15.36;100.00;102260.31;5254144;28;20104;-71
2023/10/07 06:02:30;;;;;;;24.70;7.13;;;;;;;15.38;100.00;102253.75;5245073;28;20128;-71
2023/10/07 06:05:01;;;;;;;19.42;7.63;;;;;;;15.36;100.00;102255.78;5245531;28;20099;-70
2023/10/07 06:07:31;;;;;;;17.52;7.60;;;;;;;15.36;100.00;102254.91;5247310;28;20170;-70
2023/10/07 06:10:02;;;;;;;22.52;7.65;;;;;;;15.40;100.00;102246.28;5253631;28;20024;-70
2023/10/07 06:12:33;;;;;;;16.05;7.05;;;;;;;15.41;100.00;102247.13;5252107;28;20393;-71
2023/10/07 06:15:08;;;;;;;21.13;7.40;;;;;;;15.39;100.00;102249.19;5248426;28;20498;-71
2023/10/07 06:17:38;;;;;;;;;;;;;;;15.40;100.00;102250.88;5249755;28;20028;-71
2023/10/07 06:20:14;;;;;;;21.27;7.45;;;;;;;15.38;100.00;102252.91;5249441;28;20259;-71
2023/10/07 06:22:45;;;;;;;24.52;7.57;;;;;;;15.36;100.00;102255.78;5254800;28;20032;-71
2023/10/07 06:25:15;;;;;;;22.48;7.78;;;;;;;15.41;100.00;102239.91;5247928;28;20035;-71
2023/10/07 06:27:46;;;;;;;19.92;7.30;;;;;;;15.39;100.00;102254.59;5250941;28;20029;-71
2023/10/07 06:30:20;;;;;;;20.15;7.50;;;;;;;15.40;100.00;102251.72;5248899;28;20499;-70
2023/10/07 06:32:57;;;;;;;16.50;6.72;;;;;;;15.38;100.00;102252.91;5253513;28;20392;-71
2023/10/07 06:35:27;;;;;;;23.63;8.00;;;;;;;15.45;100.00;102249.34;5251879;28;20259;-70
2023/10/07 06:37:58;;;;;;;22.58;8.13;;;;;;;15.47;100.00;102254.63;5250176;28;20035;-70
2023/10/07 06:40:28;;;;;;;20.90;8.20;;;;;;;15.41;100.00;102260.66;5250039;28;20024;-71
2023/10/07 06:43:01;;;;;;;25.05;7.68;;;;;;;15.52;100.00;102258.53;5248596;28;20172;-71
2023/10/07 06:45:35;;;;;;;21.67;6.80;;;;;;;15.59;100.00;102266.81;5249140;28;20024;-71
2023/10/07 06:48:08;;;;;;;23.23;7.95;;;;;;;15.61;100.00;102269.34;5251226;28;20031;-71
2023/10/07 06:50:41;;;;;;;16.75;7.35;;;;;;;15.65;100.00;102277.00;5244853;28;20803;-71
2023/10/07 06:53:12;;;;;;;16.38;7.15;;;;;;;15.67;100.00;102279.56;5251861;28;20077;-71
2023/10/07 06:55:47;;;;;;;15.73;6.85;;;;;;;15.71;100.00;102281.78;5243727;28;20017;-71
2023/10/07 06:58:22;;;;;;;;;;;;;;;15.79;100.00;102289.06;5249236;28;20481;-71
2023/10/07 07:00:59;;;;;;;16.85;6.63;;;;;;;15.84;100.00;102288.56;5251852;28;19930;-71
2023/10/07 07:03:32;;;;;;;21.20;6.45;;;;;;;15.87;100.00;102290.94;5246431;28;20082;-71
2023/10/07 07:06:04;;;;;;;20.00;6.80;;;;;;;15.95;100.00;102288.22;5250372;28;20118;-71
2023/10/07 07:08:35;;;;;;;17.40;6.95;;;;;;;15.99;100.00;102292.31;5246470;28;20025;-71
2023/10/07 07:11:10;;;;;;;18.65;7.72;;;;;;;16.02;100.00;102300.09;5249647;28;20028;-71
2023/10/07 07:13:43;;;;;;;18.23;7.03;;;;;;;16.02;100.00;102295.53;5247036;28;20377;-71
2023/10/07 07:16:14;;;;;;;23.67;7.57;;;;;;;16.18;100.00;102297.41;5248274;28;20031;-71
2023/10/07 07:18:47;;;;;;;24.60;7.43;;;;;;;16.26;100.00;102291.97;5246156;28;20036;-72
2023/10/07 07:21:31;;;;;;;14.20;6.47;;;;;;;16.34;100.00;102293.00;5227361;28;20027;-71
2023/10/07 07:24:03;;;;;;;23.58;7.43;;;;;;;16.49;100.00;102294.88;5241459;28;20032;-71
2023/10/07 07:26:34;;;;;;;20.35;7.07;;;;;;;16.52;100.00;102281.00;5249325;28;20028;-72
2023/10/07 07:29:05;;;;;;;28.20;6.45;;;;;;;16.51;100.00;102264.91;5245534;28;20035;-72
2023/10/07 07:31:37;;;;;;;21.73;7.38;;;;;;;16.61;100.00;102262.84;5248477;28;20040;-72
2023/10/07 07:34:24;;;;;;;17.48;6.55;;;;;;;16.48;100.00;102266.09;5252159;28;20024;-72
2023/10/07 07:37:02;;;;;;;16.23;6.40;;;;;;;16.63;100.00;102260.81;5250354;28;20070;-72
2023/10/07 07:39:36;;;;;;;22.05;6.40;;;;;;;16.79;100.00;102252.69;5248381;28;20047;-72
2023/10/07 07:42:21;;;;;;;23.13;6.22;;;;;;;16.89;100.00;102259.78;5240667;28;20034;-72
2023/10/07 07:44:57;;;;;;;55.42;7.35;;;;;;;17.27;100.00;102277.09;5246073;28;20024;-72
2023/10/07 07:47:31;;;;;;;13.20;6.10;;;;;;;17.32;100.00;102280.16;5247598;28;20111;-73
2023/10/07 07:50:01;;;;;;;17.17;5.53;;;;;;;17.46;100.00;102286.69;5240644;28;20389;-71
2023/10/07 07:52:32;;;;;;;19.65;6.47;;;;;;;17.66;100.00;102277.09;5247260;28;20024;-71
2023/10/07 07:55:02;;;;;;;19.23;6.80;;;;;;;17.68;100.00;102285.91;5248106;28;20060;-71
2023/10/07 07:57:35;;;;;;;19.38;6.43;;;;;;;17.71;100.00;102296.38;5247160;28;20320;-71
2023/10/07 08:00:09;;;;;;;17.92;6.18;;;;;;;17.83;100.00;102303.16;5248185;28;20111;-71
2023/10/07 08:02:48;;;;;;;14.93;6.05;;;;;;;18.32;100.00;102307.38;5248669;28;20390;-71
2023/10/07 08:05:19;;;;;;;13.60;5.22;;;;;;;18.58;100.00;102299.69;5243385;28;20398;-71
2023/10/07 08:07:51;;;;;;;11.77;5.95;;;;;;;18.93;100.00;102301.94;5252856;28;20258;-71
2023/10/07 08:10:22;;;;;;;15.20;5.60;;;;;;;19.17;100.00;102309.81;5247958;28;20031;-71
2023/10/07 08:12:54;;;;;;;13.25;5.18;;;;;;;19.25;100.00;102307.00;5255437;28;20111;-71
2023/10/07 08:15:25;;;;;;;15.15;5.70;;;;;;;19.50;100.00;102309.44;5244431;28;20036;-71
2023/10/07 08:17:56;;;;;;;10.63;4.72;;;;;;;19.78;100.00;102305.00;5253950;28;20039;-71
2023/10/07 08:20:37;;;;;;;14.77;5.25;;;;;;;20.16;100.00;102304.75;5250213;28;20032;-71
2023/10/07 08:23:08;;;;;;;12.23;5.30;;;;;;;20.20;100.00;102297.91;5246763;28;20040;-71
2023/10/07 08:25:46;;;;;;;12.23;4.80;;;;;;;20.51;100.00;102292.13;5251503;28;20032;-71
2023/10/07 08:28:30;;;;;;;13.70;5.38;;;;;;;20.26;100.00;102297.09;5249556;28;20036;-71
2023/10/07 08:31:20;;;;;;;12.25;5.10;;;;;;;20.16;100.00;102307.50;5253536;28;20112;-71
2023/10/07 08:33:53;;;;;;;11.15;4.63;;;;;;;20.37;100.00;102307.47;5246080;28;20033;-71
2023/10/07 08:36:29;;;;;;;16.20;5.70;;;;;;;20.66;100.00;102292.03;5249258;28;20028;-71
2023/10/07 08:38:59;;;;;;;;;;;;;;;20.96;100.00;102295.38;5250529;28;20039;-71
2023/10/07 08:41:31;;;;;;;12.18;4.78;;;;;;;21.16;100.00;102303.69;5247569;28;19912;-71
2023/10/07 08:44:12;;;;;;;14.57;4.57;;;;;;;21.07;100.00;102310.34;5253843;28;20511;-71
2023/10/07 08:46:49;;;;;;;13.57;4.88;;;;;;;21.07;100.00;102313.91;5242406;28;20039;-71
2023/10/07 08:49:25;;;;;;;14.32;3.85;;;;;;;21.43;100.00;102304.69;5247428;28;20153;-71
2023/10/07 08:51:56;;;;;;;12.63;4.88;;;;;;;21.15;100.00;102307.47;5249381;28;20039;-71
2023/10/07 08:54:31;;;;;;;16.58;5.50;;;;;;;21.17;100.00;102295.28;5245710;28;20517;-71
2023/10/07 08:57:15;;;;;;;14.45;4.70;;;;;;;21.51;100.00;102301.81;5244676;28;20035;-71
2023/10/07 08:59:52;;;;;;;12.88;3.88;;;;;;;21.61;100.00;102294.06;5251550;28;20075;-71
2023/10/07 09:02:26;;;;;;;13.40;4.32;;;;;;;21.30;100.00;102290.97;5248829;28;20108;-71
2023/10/07 09:04:58;;;;;;;13.10;4.47;;;;;;;21.57;100.00;102295.53;5254323;28;20020;-71
2023/10/07 09:07:35;;;;;;;15.88;4.63;;;;;;;21.77;100.00;102303.78;5248847;28;20030;-71
2023/10/07 09:10:15;;;;;;;10.65;4.35;;;;;;;21.52;100.00;102299.91;5247102;28;20393;-71
2023/10/07 09:12:56;;;;;;;16.00;5.20;;;;;;;21.56;100.00;102291.09;5254419;28;20036;-71
2023/10/07 09:15:28;;;;;;;14.02;4.38;;;;;;;21.61;100.00;102291.34;5246131;28;20032;-71
2023/10/07 09:18:03;;;;;;;14.40;4.22;;;;;;;21.28;100.00;102290.31;5250783;28;20054;-71
2023/10/07 09:20:36;;;;;;;13.10;4.45;;;;;;;21.70;100.00;102294.75;5250276;28;20029;-71
2023/10/07 09:23:07;;;;;;;9.68;4.05;;;;;;;21.61;100.00;102288.59;5249611;28;20048;-72
2023/10/07 09:25:38;;;;;;;13.35;4.68;;;;;;;21.63;100.00;102296.59;5245877;28;20028;-71
2023/10/07 09:28:08;;;;;;;15.02;4.43;;;;;;;21.55;100.00;102294.06;5251743;28;20044;-71
2023/10/07 09:30:48;;;;;;;15.45;4.72;;;;;;;21.54;100.00;102290.47;5248487;28;20032;-72
2023/10/07 09:33:19;;;;;;;10.38;4.22;;;;;;;21.55;100.00;102291.31;5247656;28;20020;-72
2023/10/07 09:38:41;;;;;;;9.65;4.32;;;;;;;21.23;100.00;102290.91;5250570;28;20489;-71
2023/10/07 09:41:23;;;;;;;12.38;4.22;;;;;;;21.52;100.00;102289.81;5243120;28;20025;-71
2023/10/07 09:43:56;;;;;;;11.15;4.15;;;;;;;21.54;100.00;102285.03;5256461;28;20115;-72
2023/10/07 09:46:28;;;;;;;14.05;4.78;;;;;;;21.35;100.00;102281.16;5247598;28;20143;-71
2023/10/07 09:48:58;;;;;;;12.60;4.43;;;;;;;21.66;100.00;102277.91;5247645;28;20425;-71
2023/10/07 09:51:29;;;;;;;12.07;4.38;;;;;;;21.81;100.00;102268.72;5253008;28;20371;-72
2023/10/07 09:54:09;;;;;;;12.43;3.70;;;;;;;22.01;100.00;102277.78;5248454;28;20020;-71
2023/10/07 09:56:59;;;;;;;13.02;4.28;;;;;;;21.90;100.00;102254.66;5246009;28;20496;-72
2023/10/07 09:59:57;;;;;;;10.15;4.20;;;;;;;21.71;100.00;102272.69;5247776;28;20020;-72
2023/10/07 10:02:31;;;;;;;10.48;4.20;;;;;;;21.57;100.00;102260.03;5249892;28;20430;-72
2023/10/07 10:05:25;;;;;;;10.95;4.35;;;;;;;21.69;100.00;102268.47;5252173;28;20024;-72
2023/10/07 10:08:29;;;;;;;9.63;4.57;;;;;;;21.83;100.00;102283.84;5251338;28;20089;-72
2023/10/07 10:11:00;;;;;;;11.00;4.68;;;;;;;21.79;100.00;102282.59;5252050;28;20108;-72
2023/10/07 10:16:14;;;;;;;15.20;5.55;;;;;;;21.69;100.00;102282.97;5241895;28;20031;-72
2023/10/07 10:18:51;;;;;;;12.93;4.70;;;;;;;21.76;100.00;102285.72;5249568;28;20028;-72
2023/10/07 10:21:22;;;;;;;12.20;4.55;;;;;;;21.82;100.00;102286.78;5247934;28;20062;-72
2023/10/07 10:23:54;;;;;;;10.50;4.28;;;;;;;21.97;100.00;102296.47;5252459;28;20099;-72
2023/10/07 10:26:27;;;;;;;11.15;4.47;;;;;;;22.04;100.00;102295.66;5252790;28;20035;-72
2023/10/07 10:28:59;;;;;;;12.63;4.15;;;;;;;22.00;100.00;102300.72;5251740;28;20027;-72
2023/10/07 10:31:32;;;;;;;14.82;4.18;;;;;;;21.89;100.00;102298.59;5246885;28;20059;-72
2023/10/07 10:34:05;;;;;;;14.55;4.60;;;;;;;22.02;100.00;102289.56;5243788;28;20111;-72
2023/10/07 10:36:38;;;;;;;13.60;4.03;;;;;;;22.19;100.00;102290.91;5240492;28;20385;-72
2023/10/07 10:39:25;;;;;;;12.93;3.83;;;;;;;21.97;100.00;102277.34;5248930;28;20024;-72
2023/10/07 10:42:01;;;;;;;9.88;4.13;;;;;;;22.08;100.00;102278.63;5242840;28;20108;-72
2023/10/07 10:44:37;;;;;;;10.45;4.35;;;;;;;21.94;100.00;102268.75;5242285;28;20020;-72
2023/10/07 10:47:07;;;;;;;13.85;4.30;;;;;;;21.95;100.00;102270.44;5243002;28;20033;-72
2023/10/07 10:49:43;;;;;;;14.10;5.28;;;;;;;22.02;100.00;102267.69;5242779;28;20023;-72
2023/10/07 10:52:15;;;;;;;13.93;5.20;;;;;;;22.17;100.00;102284.78;5242924;28;20066;-72
2023/10/07 10:54:46;;;;;;;17.63;4.82;;;;;;;22.14;100.00;102279.72;5247653;28;20024;-71
2023/10/07 10:57:19;;;;;;;11.15;4.80;;;;;;;22.28;100.00;102281.41;5244668;28;20032;-71
2023/10/07 10:59:50;;;;;;;15.23;4.07;;;;;;;22.41;100.00;102270.50;5242956;28;20039;-72
2023/10/07 11:02:21;;;;;;;16.13;4.70;;;;;;;22.31;100.00;102286.47;5247528;28;20111;-72
2023/10/07 11:04:54;;;;;;;12.48;4.70;;;;;;;22.35;100.00;102286.91;5240358;28;20652;-72
2023/10/07 11:07:25;;;;;;;9.43;4.10;;;;;;;22.21;100.00;102283.31;5241174;28;20028;-72
2023/10/07 11:09:55;;;;;;;11.45;4.30;;;;;;;22.32;100.00;102288.16;5244762;28;20355;-72
2023/10/07 11:12:28;;;;;;;12.25;4.38;;;;;;;22.67;100.00;102277.00;5239386;28;20036;-72
2023/10/07 11:15:07;;;;;;;11.32;4.50;;;;;;;22.74;100.00;102280.56;5241317;28;20039;-72
2023/10/07 11:17:52;;;;;;;10.30;4.55;;;;;;;22.91;100.00;102278.25;5241772;28;20023;-72
2023/10/07 11:20:24;;;;;;;18.85;5.60;;;;;;;22.93;100.00;102276.97;5245114;28;20054;-72
2023/10/07 11:22:57;;;;;;;12.57;4.57;;;;;;;23.09;100.00;102285.78;5241832;28;20032;-72
2023/10/07 11:25:29;;;;;;;17.73;4.57;;;;;;;23.05;100.00;102296.34;5241544;28;20020;-72
2023/10/07 11:28:05;;;;;;;10.52;5.03;;;;;;;23.27;100.00;102295.00;5242696;28;20032;-72
2023/10/07 11:30:44;;;;;;;14.80;4.25;;;;;;;23.31;100.00;102297.31;5237566;28;20111;-72
2023/10/07 11:33:16;;;;;;;8.88;3.85;;;;;;;23.16;100.00;102306.63;5246171;28;20532;-72
2023/10/07 11:35:58;;;;;;;10.70;4.38;;;;;;;23.18;100.00;102292.72;5241937;28;20053;-72
2023/10/07 11:38:29;;;;;;;9.55;4.25;;;;;;;23.35;100.00;102296.66;5241664;28;20029;-72
2023/10/07 11:41:00;;;;;;;7.75;3.97;;;;;;;23.12;100.00;102299.06;5241790;28;20389;-72
2023/10/07 11:43:43;;;;;;;12.45;5.03;;;;;;;23.18;100.00;102298.19;5246431;28;20020;-72
2023/10/07 11:46:15;;;;;;;17.77;5.40;;;;;;;23.19;100.00;102292.50;5243703;28;20047;-72
2023/10/07 11:48:45;;;;;;;11.23;4.65;;;;;;;23.35;100.00;102288.47;5245761;28;20032;-72
2023/10/07 11:51:16;;;;;;;19.15;4.50;;;;;;;23.27;100.00;102300.47;5246415;28;20051;-72
2023/10/07 11:53:48;;;;;;;10.07;4.22;;;;;;;23.04;100.00;102282.84;5246651;28;20028;-72
2023/10/07 11:56:19;;;;;;;10.93;4.40;;;;;;;22.99;100.00;102280.75;5246513;28;20420;-72
2023/10/07 11:58:52;;;;;;;12.43;4.57;;;;;;;22.81;100.00;102280.56;5244687;28;20041;-72
2023/10/07 12:01:24;;;;;;;14.07;4.30;;;;;;;22.91;100.00;102279.09;5237460;28;20420;-72
2023/10/07 12:03:56;;;;;;;14.95;5.00;;;;;;;23.04;100.00;102283.69;5244080;28;20039;-72
2023/10/07 12:06:27;;;;;;;11.98;4.50;;;;;;;23.10;100.00;102282.00;5246130;28;20022;-72
2023/10/07 12:09:06;;;;;;;11.07;4.40;;;;;;;23.19;100.00;102276.09;5244982;28;20028;-72